sensor_id;sensor_type;location;lat;lon;timestamp;temperature;humidity
8778;DHT22;4425;50.872;4.712;2022-10-16T00:00:00;14.10;99.90
8778;DHT22;4425;50.872;4.712;2022-10-16T00:02:29;14.10;99.90
8778;DHT22;4425;50.872;4.712;2022-10-16T00:04:56;14.00;99.90
8778;DHT22;4425;50.872;4.712;2022-10-16T00:07:23;14.00;99.90
8778;DHT22;4425;50.872;4.712;2022-10-16T00:09:50;14.00;99.90
8778;DHT22;4425;50.872;4.712;2022-10-16T00:12:17;14.00;99.90
8778;DHT22;4425;50.872;4.712;2022-10-16T00:14:44;13.90;99.90
8778;DHT22;4425;50.872;4.712;2022-10-16T00:17:13;14.00;99.90
8778;DHT22;4425;50.872;4.712;2022-10-16T00:19:41;13.90;99.90
8778;DHT22;4425;50.872;4.712;2022-10-16T00:22:09;14.00;99.90
8778;DHT22;4425;50.872;4.712;2022-10-16T00:24:36;14.00;99.90
8778;DHT22;4425;50.872;4.712;2022-10-16T00:27:03;14.00;99.90
8778;DHT22;4425;50.872;4.712;2022-10-16T00:29:30;13.90;99.90
8778;DHT22;4425;50.872;4.712;2022-10-16T00:31:57;14.00;99.90
8778;DHT22;4425;50.872;4.712;2022-10-16T00:34:24;13.90;99.90
8778;DHT22;4425;50.872;4.712;2022-10-16T00:36:53;13.90;99.90
8778;DHT22;4425;50.872;4.712;2022-10-16T00:39:20;13.80;99.90
8778;DHT22;4425;50.872;4.712;2022-10-16T00:41:48;13.90;99.90
8778;DHT22;4425;50.872;4.712;2022-10-16T00:47:25;13.90;99.90
8778;DHT22;4425;50.872;4.712;2022-10-16T00:50:13;13.80;99.90
8778;DHT22;4425;50.872;4.712;2022-10-16T00:52:46;13.90;99.90
8778;DHT22;4425;50.872;4.712;2022-10-16T00:55:14;13.80;99.90
8778;DHT22;4425;50.872;4.712;2022-10-16T00:57:42;13.70;99.90
8778;DHT22;4425;50.872;4.712;2022-10-16T01:00:16;13.70;99.90
8778;DHT22;4425;50.872;4.712;2022-10-16T01:02:43;13.70;99.90
8778;DHT22;4425;50.872;4.712;2022-10-16T01:05:10;13.80;99.90
8778;DHT22;4425;50.872;4.712;2022-10-16T01:07:45;13.60;99.90
8778;DHT22;4425;50.872;4.712;2022-10-16T01:10:24;13.60;99.90
8778;DHT22;4425;50.872;4.712;2022-10-16T01:12:59;13.60;99.90
8778;DHT22;4425;50.872;4.712;2022-10-16T01:15:30;13.60;99.90
8778;DHT22;4425;50.872;4.712;2022-10-16T01:18:03;13.60;99.90
8778;DHT22;4425;50.872;4.712;2022-10-16T01:20:37;13.80;99.90
8778;DHT22;4425;50.872;4.712;2022-10-16T01:23:15;13.80;99.90
8778;DHT22;4425;50.872;4.712;2022-10-16T01:26:04;13.60;99.90
8778;DHT22;4425;50.872;4.712;2022-10-16T01:28:41;13.60;99.90
8778;DHT22;4425;50.872;4.712;2022-10-16T01:31:11;13.50;99.90
8778;DHT22;4425;50.872;4.712;2022-10-16T01:33:45;13.60;99.90
8778;DHT22;4425;50.872;4.712;2022-10-16T01:36:16;13.50;99.90
8778;DHT22;4425;50.872;4.712;2022-10-16T01:38:48;13.50;99.90
8778;DHT22;4425;50.872;4.712;2022-10-16T01:41:19;13.50;99.90
8778;DHT22;4425;50.872;4.712;2022-10-16T01:44:01;13.50;99.90
8778;DHT22;4425;50.872;4.712;2022-10-16T01:46:29;13.50;99.90
8778;DHT22;4425;50.872;4.712;2022-10-16T01:48:58;13.40;99.90
8778;DHT22;4425;50.872;4.712;2022-10-16T01:51:26;13.50;99.90
8778;DHT22;4425;50.872;4.712;2022-10-16T01:54:00;13.50;99.90
8778;DHT22;4425;50.872;4.712;2022-10-16T01:56:32;13.60;99.90
8778;DHT22;4425;50.872;4.712;2022-10-16T01:59:05;13.50;99.90
8778;DHT22;4425;50.872;4.712;2022-10-16T02:01:35;13.50;99.90
8778;DHT22;4425;50.872;4.712;2022-10-16T02:04:11;13.50;99.90
8778;DHT22;4425;50.872;4.712;2022-10-16T02:06:41;13.60;99.90
8778;DHT22;4425;50.872;4.712;2022-10-16T02:09:08;13.50;99.90
8778;DHT22;4425;50.872;4.712;2022-10-16T02:11:35;13.50;99.90
8778;DHT22;4425;50.872;4.712;2022-10-16T02:14:06;13.50;99.90
8778;DHT22;4425;50.872;4.712;2022-10-16T02:16:35;13.50;99.90
8778;DHT22;4425;50.872;4.712;2022-10-16T02:19:03;13.50;99.90
8778;DHT22;4425;50.872;4.712;2022-10-16T02:21:38;13.50;99.90
8778;DHT22;4425;50.872;4.712;2022-10-16T02:24:13;13.50;99.90
8778;DHT22;4425;50.872;4.712;2022-10-16T02:26:49;13.50;99.90
8778;DHT22;4425;50.872;4.712;2022-10-16T02:29:22;13.50;99.90
8778;DHT22;4425;50.872;4.712;2022-10-16T02:31:54;13.50;99.90
8778;DHT22;4425;50.872;4.712;2022-10-16T02:34:22;13.50;99.90
8778;DHT22;4425;50.872;4.712;2022-10-16T02:36:53;13.60;99.90
8778;DHT22;4425;50.872;4.712;2022-10-16T02:39:20;13.50;99.90
8778;DHT22;4425;50.872;4.712;2022-10-16T02:41:48;13.50;99.90
8778;DHT22;4425;50.872;4.712;2022-10-16T02:44:15;13.40;99.90
8778;DHT22;4425;50.872;4.712;2022-10-16T02:46:43;13.50;99.90
8778;DHT22;4425;50.872;4.712;2022-10-16T02:49:10;13.50;99.90
8778;DHT22;4425;50.872;4.712;2022-10-16T02:51:37;13.50;99.90
8778;DHT22;4425;50.872;4.712;2022-10-16T02:54:04;13.50;99.90
8778;DHT22;4425;50.872;4.712;2022-10-16T02:56:31;13.60;99.90
8778;DHT22;4425;50.872;4.712;2022-10-16T02:59:05;13.50;99.90
8778;DHT22;4425;50.872;4.712;2022-10-16T03:01:33;13.40;99.90
8778;DHT22;4425;50.872;4.712;2022-10-16T03:04:04;13.40;99.90
8778;DHT22;4425;50.872;4.712;2022-10-16T03:06:31;13.40;99.90
8778;DHT22;4425;50.872;4.712;2022-10-16T03:08:58;13.30;99.90
8778;DHT22;4425;50.872;4.712;2022-10-16T03:11:25;13.40;99.90
8778;DHT22;4425;50.872;4.712;2022-10-16T03:13:53;13.40;99.90
8778;DHT22;4425;50.872;4.712;2022-10-16T03:16:20;13.40;99.90
8778;DHT22;4425;50.872;4.712;2022-10-16T03:18:48;13.40;99.90
8778;DHT22;4425;50.872;4.712;2022-10-16T03:21:25;13.40;99.90
8778;DHT22;4425;50.872;4.712;2022-10-16T03:23:53;13.40;99.90
8778;DHT22;4425;50.872;4.712;2022-10-16T03:26:20;13.40;99.90
8778;DHT22;4425;50.872;4.712;2022-10-16T03:28:48;13.40;99.90
8778;DHT22;4425;50.872;4.712;2022-10-16T03:31:15;13.50;99.90
8778;DHT22;4425;50.872;4.712;2022-10-16T03:33:42;13.50;99.90
8778;DHT22;4425;50.872;4.712;2022-10-16T03:36:09;13.40;99.90
8778;DHT22;4425;50.872;4.712;2022-10-16T03:38:38;13.40;99.90
8778;DHT22;4425;50.872;4.712;2022-10-16T03:41:06;13.50;99.90
8778;DHT22;4425;50.872;4.712;2022-10-16T03:43:33;13.50;99.90
8778;DHT22;4425;50.872;4.712;2022-10-16T03:46:00;13.50;99.90
8778;DHT22;4425;50.872;4.712;2022-10-16T03:48:28;13.50;99.90
8778;DHT22;4425;50.872;4.712;2022-10-16T03:50:55;13.40;99.90
8778;DHT22;4425;50.872;4.712;2022-10-16T03:53:22;13.40;99.90
8778;DHT22;4425;50.872;4.712;2022-10-16T03:55:51;13.40;99.90
8778;DHT22;4425;50.872;4.712;2022-10-16T03:58:18;13.30;99.90
8778;DHT22;4425;50.872;4.712;2022-10-16T04:00:47;13.40;99.90
8778;DHT22;4425;50.872;4.712;2022-10-16T04:03:19;13.40;99.90
8778;DHT22;4425;50.872;4.712;2022-10-16T04:05:51;13.40;99.90
8778;DHT22;4425;50.872;4.712;2022-10-16T04:08:18;13.40;99.90
8778;DHT22;4425;50.872;4.712;2022-10-16T04:10:45;13.40;99.90
8778;DHT22;4425;50.872;4.712;2022-10-16T04:13:14;13.50;99.90
8778;DHT22;4425;50.872;4.712;2022-10-16T04:15:42;13.50;99.90
8778;DHT22;4425;50.872;4.712;2022-10-16T04:18:10;13.50;99.90
8778;DHT22;4425;50.872;4.712;2022-10-16T04:20:38;13.40;99.90
8778;DHT22;4425;50.872;4.712;2022-10-16T04:23:05;13.30;99.90
8778;DHT22;4425;50.872;4.712;2022-10-16T04:25:32;13.40;99.90
8778;DHT22;4425;50.872;4.712;2022-10-16T04:27:59;13.40;99.90
8778;DHT22;4425;50.872;4.712;2022-10-16T04:30:28;13.40;99.90
8778;DHT22;4425;50.872;4.712;2022-10-16T04:32:55;13.40;99.90
8778;DHT22;4425;50.872;4.712;2022-10-16T04:35:22;13.50;99.90
8778;DHT22;4425;50.872;4.712;2022-10-16T04:37:49;13.40;99.90
8778;DHT22;4425;50.872;4.712;2022-10-16T04:40:16;13.40;99.90
8778;DHT22;4425;50.872;4.712;2022-10-16T04:42:43;13.40;99.90
8778;DHT22;4425;50.872;4.712;2022-10-16T04:45:10;13.40;99.90
8778;DHT22;4425;50.872;4.712;2022-10-16T04:47:39;13.30;99.90
8778;DHT22;4425;50.872;4.712;2022-10-16T04:50:06;13.40;99.90
8778;DHT22;4425;50.872;4.712;2022-10-16T04:52:33;13.40;99.90
8778;DHT22;4425;50.872;4.712;2022-10-16T04:55:01;13.30;99.90
8778;DHT22;4425;50.872;4.712;2022-10-16T04:57:29;13.30;99.90
8778;DHT22;4425;50.872;4.712;2022-10-16T04:59:56;13.20;99.90
8778;DHT22;4425;50.872;4.712;2022-10-16T05:02:23;13.30;99.90
8778;DHT22;4425;50.872;4.712;2022-10-16T05:04:51;13.30;99.90
8778;DHT22;4425;50.872;4.712;2022-10-16T05:07:19;13.20;99.90
8778;DHT22;4425;50.872;4.712;2022-10-16T05:09:46;13.20;99.90
8778;DHT22;4425;50.872;4.712;2022-10-16T05:12:13;13.20;99.90
8778;DHT22;4425;50.872;4.712;2022-10-16T05:14:40;13.20;99.90
8778;DHT22;4425;50.872;4.712;2022-10-16T05:17:07;13.20;99.90
8778;DHT22;4425;50.872;4.712;2022-10-16T05:19:34;13.20;99.90
8778;DHT22;4425;50.872;4.712;2022-10-16T05:22:03;13.20;99.90
8778;DHT22;4425;50.872;4.712;2022-10-16T05:24:29;13.20;99.90
8778;DHT22;4425;50.872;4.712;2022-10-16T05:26:57;13.20;99.90
8778;DHT22;4425;50.872;4.712;2022-10-16T05:29:24;13.10;99.90
8778;DHT22;4425;50.872;4.712;2022-10-16T05:31:52;13.10;99.90
8778;DHT22;4425;50.872;4.712;2022-10-16T05:34:20;13.10;99.90
8778;DHT22;4425;50.872;4.712;2022-10-16T05:36:47;13.10;99.90
8778;DHT22;4425;50.872;4.712;2022-10-16T05:39:16;13.10;99.90
8778;DHT22;4425;50.872;4.712;2022-10-16T05:41:43;13.10;99.90
8778;DHT22;4425;50.872;4.712;2022-10-16T05:44:10;13.10;99.90
8778;DHT22;4425;50.872;4.712;2022-10-16T05:46:37;13.10;99.90
8778;DHT22;4425;50.872;4.712;2022-10-16T05:49:05;13.00;99.90
8778;DHT22;4425;50.872;4.712;2022-10-16T05:51:32;13.00;99.90
8778;DHT22;4425;50.872;4.712;2022-10-16T05:53:59;13.00;99.90
8778;DHT22;4425;50.872;4.712;2022-10-16T05:56:27;13.00;99.90
8778;DHT22;4425;50.872;4.712;2022-10-16T05:58:55;13.00;99.90
8778;DHT22;4425;50.872;4.712;2022-10-16T06:01:26;13.00;99.90
8778;DHT22;4425;50.872;4.712;2022-10-16T06:03:53;13.00;99.90
8778;DHT22;4425;50.872;4.712;2022-10-16T06:06:24;12.90;99.90
8778;DHT22;4425;50.872;4.712;2022-10-16T06:09:03;13.00;99.90
8778;DHT22;4425;50.872;4.712;2022-10-16T06:11:32;13.00;99.90
8778;DHT22;4425;50.872;4.712;2022-10-16T06:14:01;13.00;99.90
8778;DHT22;4425;50.872;4.712;2022-10-16T06:16:36;13.00;99.90
8778;DHT22;4425;50.872;4.712;2022-10-16T06:19:03;13.00;99.90
8778;DHT22;4425;50.872;4.712;2022-10-16T06:21:35;13.00;99.90
8778;DHT22;4425;50.872;4.712;2022-10-16T06:24:13;13.00;99.90
8778;DHT22;4425;50.872;4.712;2022-10-16T06:26:46;13.00;99.90
8778;DHT22;4425;50.872;4.712;2022-10-16T06:29:13;13.00;99.90
8778;DHT22;4425;50.872;4.712;2022-10-16T06:31:40;12.90;99.90
8778;DHT22;4425;50.872;4.712;2022-10-16T06:34:09;12.90;99.90
8778;DHT22;4425;50.872;4.712;2022-10-16T06:36:37;13.00;99.90
8778;DHT22;4425;50.872;4.712;2022-10-16T06:39:05;13.00;99.90
8778;DHT22;4425;50.872;4.712;2022-10-16T06:41:33;13.00;99.90
8778;DHT22;4425;50.872;4.712;2022-10-16T06:44:05;13.00;99.90
8778;DHT22;4425;50.872;4.712;2022-10-16T06:46:32;13.00;99.90
8778;DHT22;4425;50.872;4.712;2022-10-16T06:48:59;13.00;99.90
8778;DHT22;4425;50.872;4.712;2022-10-16T06:51:30;13.00;99.90
8778;DHT22;4425;50.872;4.712;2022-10-16T06:53:59;13.10;99.90
8778;DHT22;4425;50.872;4.712;2022-10-16T06:56:28;13.10;99.90
8778;DHT22;4425;50.872;4.712;2022-10-16T06:58:56;13.10;99.90
8778;DHT22;4425;50.872;4.712;2022-10-16T07:01:25;13.10;99.90
8778;DHT22;4425;50.872;4.712;2022-10-16T07:03:52;13.20;99.90
8778;DHT22;4425;50.872;4.712;2022-10-16T07:06:21;13.20;99.90
8778;DHT22;4425;50.872;4.712;2022-10-16T07:08:49;13.30;99.90
8778;DHT22;4425;50.872;4.712;2022-10-16T07:11:19;13.40;99.90
8778;DHT22;4425;50.872;4.712;2022-10-16T07:13:48;13.40;99.90
8778;DHT22;4425;50.872;4.712;2022-10-16T07:16:16;13.50;99.90
8778;DHT22;4425;50.872;4.712;2022-10-16T07:18:45;13.70;99.90
8778;DHT22;4425;50.872;4.712;2022-10-16T07:21:15;13.80;99.90
8778;DHT22;4425;50.872;4.712;2022-10-16T07:23:43;14.00;99.90
8778;DHT22;4425;50.872;4.712;2022-10-16T07:26:11;14.10;99.90
8778;DHT22;4425;50.872;4.712;2022-10-16T07:28:38;14.20;99.90
8778;DHT22;4425;50.872;4.712;2022-10-16T07:31:07;14.40;99.90
8778;DHT22;4425;50.872;4.712;2022-10-16T07:33:37;15.60;99.90
8778;DHT22;4425;50.872;4.712;2022-10-16T07:36:06;17.30;99.90
8778;DHT22;4425;50.872;4.712;2022-10-16T07:38:33;18.80;99.90
8778;DHT22;4425;50.872;4.712;2022-10-16T07:41:02;20.00;99.90
8778;DHT22;4425;50.872;4.712;2022-10-16T07:43:30;21.10;99.90
8778;DHT22;4425;50.872;4.712;2022-10-16T07:45:57;21.80;99.90
8778;DHT22;4425;50.872;4.712;2022-10-16T07:48:27;22.30;99.90
8778;DHT22;4425;50.872;4.712;2022-10-16T07:50:57;22.40;99.90
8778;DHT22;4425;50.872;4.712;2022-10-16T07:53:26;22.80;99.90
8778;DHT22;4425;50.872;4.712;2022-10-16T07:55:57;23.10;99.90
8778;DHT22;4425;50.872;4.712;2022-10-16T07:58:25;23.00;99.90
8778;DHT22;4425;50.872;4.712;2022-10-16T08:00:52;22.10;99.90
8778;DHT22;4425;50.872;4.712;2022-10-16T08:03:19;21.00;99.90
8778;DHT22;4425;50.872;4.712;2022-10-16T08:05:46;20.10;99.90
8778;DHT22;4425;50.872;4.712;2022-10-16T08:08:14;19.20;99.90
8778;DHT22;4425;50.872;4.712;2022-10-16T08:10:47;18.40;99.90
8778;DHT22;4425;50.872;4.712;2022-10-16T08:13:22;17.50;99.90
8778;DHT22;4425;50.872;4.712;2022-10-16T08:15:49;16.90;99.90
8778;DHT22;4425;50.872;4.712;2022-10-16T08:18:16;16.40;99.90
8778;DHT22;4425;50.872;4.712;2022-10-16T08:20:43;16.20;99.90
8778;DHT22;4425;50.872;4.712;2022-10-16T08:23:11;15.80;99.90
8778;DHT22;4425;50.872;4.712;2022-10-16T08:25:39;15.70;99.90
8778;DHT22;4425;50.872;4.712;2022-10-16T08:28:10;15.70;99.90
8778;DHT22;4425;50.872;4.712;2022-10-16T08:30:37;15.70;99.90
8778;DHT22;4425;50.872;4.712;2022-10-16T08:33:05;15.70;99.90
8778;DHT22;4425;50.872;4.712;2022-10-16T08:35:32;15.60;99.90
8778;DHT22;4425;50.872;4.712;2022-10-16T08:37:59;15.60;99.90
8778;DHT22;4425;50.872;4.712;2022-10-16T08:40:28;15.60;99.90
8778;DHT22;4425;50.872;4.712;2022-10-16T08:43:21;15.70;99.90
8778;DHT22;4425;50.872;4.712;2022-10-16T08:46:19;15.70;99.90
8778;DHT22;4425;50.872;4.712;2022-10-16T08:48:50;15.70;99.90
8778;DHT22;4425;50.872;4.712;2022-10-16T08:51:20;15.80;99.90
8778;DHT22;4425;50.872;4.712;2022-10-16T08:53:52;15.80;99.90
8778;DHT22;4425;50.872;4.712;2022-10-16T08:56:21;15.90;99.90
8778;DHT22;4425;50.872;4.712;2022-10-16T08:58:52;15.90;99.90
8778;DHT22;4425;50.872;4.712;2022-10-16T09:01:21;15.90;99.90
8778;DHT22;4425;50.872;4.712;2022-10-16T09:04:05;16.10;99.90
8778;DHT22;4425;50.872;4.712;2022-10-16T09:06:45;16.00;99.90
8778;DHT22;4425;50.872;4.712;2022-10-16T09:09:32;16.00;99.90
8778;DHT22;4425;50.872;4.712;2022-10-16T09:12:08;16.10;99.90
8778;DHT22;4425;50.872;4.712;2022-10-16T09:14:50;16.10;99.90
8778;DHT22;4425;50.872;4.712;2022-10-16T09:17:27;16.20;99.90
8778;DHT22;4425;50.872;4.712;2022-10-16T09:20:04;16.30;99.90
8778;DHT22;4425;50.872;4.712;2022-10-16T09:22:37;16.30;99.90
8778;DHT22;4425;50.872;4.712;2022-10-16T09:25:19;16.40;99.90
8778;DHT22;4425;50.872;4.712;2022-10-16T09:27:52;16.50;99.90
8778;DHT22;4425;50.872;4.712;2022-10-16T09:30:21;16.50;99.90
8778;DHT22;4425;50.872;4.712;2022-10-16T09:32:51;16.60;99.90
8778;DHT22;4425;50.872;4.712;2022-10-16T09:35:21;16.70;99.90
8778;DHT22;4425;50.872;4.712;2022-10-16T09:37:51;16.70;99.90
8778;DHT22;4425;50.872;4.712;2022-10-16T09:40:28;16.80;99.90
8778;DHT22;4425;50.872;4.712;2022-10-16T09:43:02;16.90;99.90
8778;DHT22;4425;50.872;4.712;2022-10-16T09:45:32;17.00;99.90
8778;DHT22;4425;50.872;4.712;2022-10-16T09:48:01;17.00;99.90
8778;DHT22;4425;50.872;4.712;2022-10-16T09:50:36;17.20;99.90
8778;DHT22;4425;50.872;4.712;2022-10-16T09:53:07;17.20;99.90
8778;DHT22;4425;50.872;4.712;2022-10-16T09:55:35;17.20;99.90
8778;DHT22;4425;50.872;4.712;2022-10-16T09:58:02;17.30;99.90
8778;DHT22;4425;50.872;4.712;2022-10-16T10:00:30;17.40;99.90
8778;DHT22;4425;50.872;4.712;2022-10-16T10:02:58;17.50;99.90
8778;DHT22;4425;50.872;4.712;2022-10-16T10:05:27;17.50;99.90
8778;DHT22;4425;50.872;4.712;2022-10-16T10:07:59;17.50;99.90
8778;DHT22;4425;50.872;4.712;2022-10-16T10:10:28;17.60;99.90
8778;DHT22;4425;50.872;4.712;2022-10-16T10:12:57;17.60;99.90
8778;DHT22;4425;50.872;4.712;2022-10-16T10:15:32;17.70;99.90
8778;DHT22;4425;50.872;4.712;2022-10-16T10:18:16;17.80;99.90
8778;DHT22;4425;50.872;4.712;2022-10-16T10:20:45;17.90;99.90
8778;DHT22;4425;50.872;4.712;2022-10-16T10:23:22;17.90;99.90
8778;DHT22;4425;50.872;4.712;2022-10-16T10:25:52;18.00;99.90
8778;DHT22;4425;50.872;4.712;2022-10-16T10:28:44;18.00;99.90
8778;DHT22;4425;50.872;4.712;2022-10-16T10:31:19;18.10;99.90
8778;DHT22;4425;50.872;4.712;2022-10-16T10:33:54;18.10;99.90
8778;DHT22;4425;50.872;4.712;2022-10-16T10:36:28;18.20;99.90
8778;DHT22;4425;50.872;4.712;2022-10-16T10:38:58;18.20;99.90
8778;DHT22;4425;50.872;4.712;2022-10-16T10:42:09;18.30;99.90
8778;DHT22;4425;50.872;4.712;2022-10-16T10:44:55;18.40;99.90
8778;DHT22;4425;50.872;4.712;2022-10-16T10:47:31;18.30;99.90
8778;DHT22;4425;50.872;4.712;2022-10-16T10:50:08;18.40;99.90
8778;DHT22;4425;50.872;4.712;2022-10-16T10:52:48;18.50;99.90
8778;DHT22;4425;50.872;4.712;2022-10-16T10:55:23;18.50;99.90
8778;DHT22;4425;50.872;4.712;2022-10-16T10:58:10;18.50;99.90
8778;DHT22;4425;50.872;4.712;2022-10-16T11:00:48;18.50;99.90
8778;DHT22;4425;50.872;4.712;2022-10-16T11:03:33;18.50;99.90
8778;DHT22;4425;50.872;4.712;2022-10-16T11:06:07;18.60;99.90
8778;DHT22;4425;50.872;4.712;2022-10-16T11:08:37;18.80;99.90
8778;DHT22;4425;50.872;4.712;2022-10-16T11:11:09;18.80;99.90
8778;DHT22;4425;50.872;4.712;2022-10-16T11:13:44;18.70;99.90
8778;DHT22;4425;50.872;4.712;2022-10-16T11:16:17;18.60;99.90
8778;DHT22;4425;50.872;4.712;2022-10-16T11:18:49;18.50;99.90
8778;DHT22;4425;50.872;4.712;2022-10-16T11:21:21;18.40;99.90
8778;DHT22;4425;50.872;4.712;2022-10-16T11:23:53;18.40;99.90
8778;DHT22;4425;50.872;4.712;2022-10-16T11:26:26;18.40;99.90
8778;DHT22;4425;50.872;4.712;2022-10-16T11:28:55;18.50;99.90
8778;DHT22;4425;50.872;4.712;2022-10-16T11:31:28;18.30;99.90
8778;DHT22;4425;50.872;4.712;2022-10-16T11:34:04;18.40;99.90
8778;DHT22;4425;50.872;4.712;2022-10-16T11:36:38;18.50;99.90
8778;DHT22;4425;50.872;4.712;2022-10-16T11:39:16;18.60;99.90
8778;DHT22;4425;50.872;4.712;2022-10-16T11:41:50;18.80;99.90
8778;DHT22;4425;50.872;4.712;2022-10-16T11:44:34;18.80;99.90
8778;DHT22;4425;50.872;4.712;2022-10-16T11:47:12;18.90;99.90
8778;DHT22;4425;50.872;4.712;2022-10-16T11:49:40;18.80;99.90
8778;DHT22;4425;50.872;4.712;2022-10-16T11:52:15;18.80;99.90
8778;DHT22;4425;50.872;4.712;2022-10-16T11:54:47;18.80;99.90
8778;DHT22;4425;50.872;4.712;2022-10-16T11:57:18;18.80;99.90
8778;DHT22;4425;50.872;4.712;2022-10-16T11:59:52;18.80;99.90
8778;DHT22;4425;50.872;4.712;2022-10-16T12:02:32;18.80;99.90
8778;DHT22;4425;50.872;4.712;2022-10-16T12:08:51;18.80;99.90
8778;DHT22;4425;50.872;4.712;2022-10-16T12:11:36;18.80;99.90
8778;DHT22;4425;50.872;4.712;2022-10-16T12:14:06;18.80;99.90
8778;DHT22;4425;50.872;4.712;2022-10-16T12:16:33;18.90;99.90
8778;DHT22;4425;50.872;4.712;2022-10-16T12:19:12;18.90;99.90
8778;DHT22;4425;50.872;4.712;2022-10-16T12:21:39;19.00;99.90
8778;DHT22;4425;50.872;4.712;2022-10-16T12:24:22;19.10;99.90
8778;DHT22;4425;50.872;4.712;2022-10-16T12:26:53;19.20;99.90
8778;DHT22;4425;50.872;4.712;2022-10-16T12:29:34;19.30;99.90
8778;DHT22;4425;50.872;4.712;2022-10-16T12:32:04;19.50;99.90
8778;DHT22;4425;50.872;4.712;2022-10-16T12:34:38;19.50;99.90
8778;DHT22;4425;50.872;4.712;2022-10-16T12:37:13;19.50;99.90
8778;DHT22;4425;50.872;4.712;2022-10-16T12:39:44;19.50;99.90
8778;DHT22;4425;50.872;4.712;2022-10-16T12:42:33;19.50;99.90
8778;DHT22;4425;50.872;4.712;2022-10-16T12:45:22;19.60;99.90
8778;DHT22;4425;50.872;4.712;2022-10-16T12:47:52;19.60;99.90
8778;DHT22;4425;50.872;4.712;2022-10-16T12:50:27;19.50;99.90
8778;DHT22;4425;50.872;4.712;2022-10-16T12:52:54;19.50;99.90
8778;DHT22;4425;50.872;4.712;2022-10-16T12:55:23;19.40;99.90
8778;DHT22;4425;50.872;4.712;2022-10-16T12:58:08;19.40;99.90
8778;DHT22;4425;50.872;4.712;2022-10-16T13:00:41;19.40;99.90
8778;DHT22;4425;50.872;4.712;2022-10-16T13:03:42;19.40;99.90
8778;DHT22;4425;50.872;4.712;2022-10-16T13:06:19;19.40;99.90
8778;DHT22;4425;50.872;4.712;2022-10-16T13:09:07;19.30;99.90
8778;DHT22;4425;50.872;4.712;2022-10-16T13:11:53;19.30;99.90
8778;DHT22;4425;50.872;4.712;2022-10-16T13:17:23;19.40;99.90
8778;DHT22;4425;50.872;4.712;2022-10-16T13:20:00;19.50;99.90
8778;DHT22;4425;50.872;4.712;2022-10-16T13:22:33;19.60;99.90
8778;DHT22;4425;50.872;4.712;2022-10-16T13:25:22;19.70;99.90
8778;DHT22;4425;50.872;4.712;2022-10-16T13:27:55;19.90;99.90
8778;DHT22;4425;50.872;4.712;2022-10-16T13:30:25;20.00;99.90
8778;DHT22;4425;50.872;4.712;2022-10-16T13:33:00;20.00;99.90
8778;DHT22;4425;50.872;4.712;2022-10-16T13:35:30;20.00;99.90
8778;DHT22;4425;50.872;4.712;2022-10-16T13:38:12;19.80;99.90
8778;DHT22;4425;50.872;4.712;2022-10-16T13:40:54;19.70;99.90
8778;DHT22;4425;50.872;4.712;2022-10-16T13:43:27;19.60;99.90
8778;DHT22;4425;50.872;4.712;2022-10-16T13:45:56;19.80;99.90
8778;DHT22;4425;50.872;4.712;2022-10-16T13:48:24;19.90;99.90
8778;DHT22;4425;50.872;4.712;2022-10-16T13:51:05;20.00;99.90
8778;DHT22;4425;50.872;4.712;2022-10-16T13:53:37;20.20;99.90
8778;DHT22;4425;50.872;4.712;2022-10-16T13:56:06;20.30;99.90
8778;DHT22;4425;50.872;4.712;2022-10-16T13:58:37;20.10;99.90
8778;DHT22;4425;50.872;4.712;2022-10-16T14:01:16;19.90;99.90
8778;DHT22;4425;50.872;4.712;2022-10-16T14:03:45;19.70;99.90
8778;DHT22;4425;50.872;4.712;2022-10-16T14:06:15;19.60;99.90
8778;DHT22;4425;50.872;4.712;2022-10-16T14:08:45;19.50;99.90
8778;DHT22;4425;50.872;4.712;2022-10-16T14:11:21;19.50;99.90
8778;DHT22;4425;50.872;4.712;2022-10-16T14:14:02;19.50;99.90
8778;DHT22;4425;50.872;4.712;2022-10-16T14:16:32;19.50;99.90
8778;DHT22;4425;50.872;4.712;2022-10-16T14:19:01;19.50;99.90
8778;DHT22;4425;50.872;4.712;2022-10-16T14:21:29;19.50;99.90
8778;DHT22;4425;50.872;4.712;2022-10-16T14:23:59;19.50;99.90
8778;DHT22;4425;50.872;4.712;2022-10-16T14:26:41;19.50;99.90
8778;DHT22;4425;50.872;4.712;2022-10-16T14:29:13;19.40;99.90
8778;DHT22;4425;50.872;4.712;2022-10-16T14:31:43;19.40;99.90
8778;DHT22;4425;50.872;4.712;2022-10-16T14:34:25;19.40;99.90
8778;DHT22;4425;50.872;4.712;2022-10-16T14:36:53;19.40;99.90
8778;DHT22;4425;50.872;4.712;2022-10-16T14:39:22;19.40;99.90
8778;DHT22;4425;50.872;4.712;2022-10-16T14:41:52;19.50;99.90
8778;DHT22;4425;50.872;4.712;2022-10-16T14:44:31;19.50;99.90
8778;DHT22;4425;50.872;4.712;2022-10-16T14:47:09;19.40;99.90
8778;DHT22;4425;50.872;4.712;2022-10-16T14:49:41;19.40;99.90
8778;DHT22;4425;50.872;4.712;2022-10-16T14:52:11;19.40;99.90
8778;DHT22;4425;50.872;4.712;2022-10-16T14:54:38;19.40;99.90
8778;DHT22;4425;50.872;4.712;2022-10-16T14:57:16;19.40;99.90
8778;DHT22;4425;50.872;4.712;2022-10-16T14:59:45;19.40;99.90
8778;DHT22;4425;50.872;4.712;2022-10-16T15:02:20;19.40;99.90
8778;DHT22;4425;50.872;4.712;2022-10-16T15:04:49;19.30;99.90
8778;DHT22;4425;50.872;4.712;2022-10-16T15:07:16;19.30;99.90
8778;DHT22;4425;50.872;4.712;2022-10-16T15:09:44;19.20;99.90
8778;DHT22;4425;50.872;4.712;2022-10-16T15:12:11;19.20;99.90
8778;DHT22;4425;50.872;4.712;2022-10-16T15:14:38;19.20;99.90
8778;DHT22;4425;50.872;4.712;2022-10-16T15:17:08;19.20;99.90
8778;DHT22;4425;50.872;4.712;2022-10-16T15:19:35;19.20;99.90
8778;DHT22;4425;50.872;4.712;2022-10-16T15:22:02;19.20;99.90
8778;DHT22;4425;50.872;4.712;2022-10-16T15:24:29;19.20;99.90
8778;DHT22;4425;50.872;4.712;2022-10-16T15:26:56;19.30;99.90
8778;DHT22;4425;50.872;4.712;2022-10-16T15:29:23;19.30;99.90
8778;DHT22;4425;50.872;4.712;2022-10-16T15:31:50;19.30;99.90
8778;DHT22;4425;50.872;4.712;2022-10-16T15:34:18;19.20;99.90
8778;DHT22;4425;50.872;4.712;2022-10-16T15:36:47;19.10;99.90
8778;DHT22;4425;50.872;4.712;2022-10-16T15:39:16;19.10;99.90
8778;DHT22;4425;50.872;4.712;2022-10-16T15:41:46;19.00;99.90
8778;DHT22;4425;50.872;4.712;2022-10-16T15:44:16;19.00;99.90
8778;DHT22;4425;50.872;4.712;2022-10-16T15:46:43;19.00;99.90
8778;DHT22;4425;50.872;4.712;2022-10-16T15:49:11;18.90;99.90
8778;DHT22;4425;50.872;4.712;2022-10-16T15:51:41;18.90;99.90
8778;DHT22;4425;50.872;4.712;2022-10-16T15:54:09;18.80;99.90
8778;DHT22;4425;50.872;4.712;2022-10-16T15:56:36;18.80;99.90
8778;DHT22;4425;50.872;4.712;2022-10-16T15:59:05;18.70;99.90
8778;DHT22;4425;50.872;4.712;2022-10-16T16:01:33;18.70;99.90
8778;DHT22;4425;50.872;4.712;2022-10-16T16:04:00;18.60;99.90
8778;DHT22;4425;50.872;4.712;2022-10-16T16:06:27;18.50;99.90
8778;DHT22;4425;50.872;4.712;2022-10-16T16:08:58;18.50;99.90
8778;DHT22;4425;50.872;4.712;2022-10-16T16:11:25;18.40;99.90
8778;DHT22;4425;50.872;4.712;2022-10-16T16:13:52;18.40;99.90
8778;DHT22;4425;50.872;4.712;2022-10-16T16:16:20;18.40;99.90
8778;DHT22;4425;50.872;4.712;2022-10-16T16:18:47;18.30;99.90
8778;DHT22;4425;50.872;4.712;2022-10-16T16:21:15;18.20;99.90
8778;DHT22;4425;50.872;4.712;2022-10-16T16:23:43;18.20;99.90
8778;DHT22;4425;50.872;4.712;2022-10-16T16:26:13;18.20;99.90
8778;DHT22;4425;50.872;4.712;2022-10-16T16:28:42;18.20;99.90
8778;DHT22;4425;50.872;4.712;2022-10-16T16:31:10;18.20;99.90
8778;DHT22;4425;50.872;4.712;2022-10-16T16:33:37;18.20;99.90
8778;DHT22;4425;50.872;4.712;2022-10-16T16:36:06;18.10;99.90